Mecca, California
Current Conditions -  °F | °C
As of 3:52 PM on Monday 22 Dec 2014 (Local Time) from KTRM Reporting Station
Clear Clear  
Wind Chill: 71°   Ceiling: Unl
Heat Index: 71°   Visibility: 10mi
Dew Point: 47°   Wind: 0mph
Humidity: 42%   Direction: NA
Pressure: 29.89"   Gusts: NA
Location:  33.57°N, 116.08°W
Report Text: KTRM 222352Z AUTO 00000KT 10SM CLR 22/08 A2989 RMK AO2 SLP121 T02170083 10228 20167 56014 TSNO
Loading
Personal Weather Stations






























Interactive Weather Map New forecast layout! Learn more

10-Day Weather Forecast

Advertisements
Track Severe Weather on mobile